Strona główna
METAR-TAF:

METAR-TAF

Lotnisko :

Marion Municipal Airport

Marion, Ohio, Stany Zjednoczone

Szerokość geograficzna: 40-37-00N, Długość geograficzna: 083-04-06W, wysokość: 303 m

Aktualna obserwacja pogody

Raport powstał 17 minut temu, godzina 07:53 UTC
Wiatr 14 kt od południowo-południowy wschód w porywach dochodzący do 17 kt
Temperatura 21°C
Wilgotność 78%
Ciśnienie 1016 hPa
Widzialność: 16.1 km
Przerywane chmury na wysokości 9500 ft
Przerywane chmury na wysokości 12000 ft

METAR: KMNN 280753Z AUTO 16014G17KT 10SM BKN095 BKN120 21/17 A2999 RMK AO2 RAB37E48 SLP150 P0000 T02060167

czas: 04:10 (08:10 UTC)


TAF: brakujący

Obserwacja i prognoza pogody dla ponad 4000 lotnisk (raport METAR i TAF).

Dostępne stacje oznaczono żółtymi i czerwonymi punktami na mapie.

Najedź kursorem aby zobaczyć nazwę stacji.

Kliknij aby zobaczyć obserwacje i prognozy pogody.

Aby zmienić mapę: kliknij na zielony przycisk z czarnym krzyżykiem, aby powiększyć; na zielony przycisk z myślnikiem, aby pomniejszyć; na zielone strzałki, aby przejść do map sąsiednich.


METAR-TAF: